createdAt,value
2023-02-05T00:00:26.749Z,7.07
2023-02-05T00:02:53.422Z,6.65
2023-02-05T00:05:20.137Z,9.13
2023-02-05T00:07:46.835Z,7.88
2023-02-05T00:10:13.582Z,6.78
2023-02-05T00:12:40.431Z,8.82
2023-02-05T00:15:07.547Z,7.38
2023-02-05T00:17:36.560Z,7.85
2023-02-05T00:20:04.967Z,8.05
2023-02-05T00:22:32.029Z,8.55
2023-02-05T00:24:58.851Z,7.70
2023-02-05T00:27:25.620Z,8.23
2023-02-05T00:29:52.286Z,7.60
2023-02-05T00:32:18.973Z,8.57
2023-02-05T00:34:45.636Z,6.72
2023-02-05T00:37:12.308Z,8.07
2023-02-05T00:39:39.141Z,8.18
2023-02-05T00:42:05.950Z,8.55
2023-02-05T00:44:32.635Z,8.65
2023-02-05T00:47:00.335Z,8.48
2023-02-05T00:49:27.025Z,7.78
2023-02-05T00:51:53.692Z,7.95
2023-02-05T00:54:20.318Z,7.47
2023-02-05T00:56:46.966Z,6.55
2023-02-05T00:59:13.745Z,7.13
2023-02-05T01:01:40.469Z,5.80
2023-02-05T01:04:07.229Z,6.25
2023-02-05T01:06:33.994Z,7.60
2023-02-05T01:09:00.676Z,7.65
2023-02-05T01:11:27.327Z,7.07
2023-02-05T01:13:54.015Z,4.35
2023-02-05T01:16:20.716Z,4.90
2023-02-05T01:18:47.433Z,3.60
2023-02-05T01:21:14.118Z,3.45
2023-02-05T01:23:40.854Z,3.78
2023-02-05T01:26:07.788Z,3.60
2023-02-05T01:28:34.453Z,3.47
2023-02-05T01:31:01.243Z,4.25
2023-02-05T01:33:27.945Z,3.88
2023-02-05T01:35:54.631Z,4.93
2023-02-05T01:38:21.374Z,5.25
2023-02-05T01:40:47.978Z,4.65
2023-02-05T01:43:17.094Z,3.72
2023-02-05T01:45:50.806Z,5.07
2023-02-05T01:48:22.376Z,4.38
2023-02-05T01:50:53.669Z,4.35
2023-02-05T01:53:25.079Z,3.88
2023-02-05T01:56:04.752Z,4.30
2023-02-05T01:58:36.249Z,6.35
2023-02-05T02:01:02.981Z,3.90
2023-02-05T02:03:31.742Z,4.57
2023-02-05T02:05:59.086Z,3.10
2023-02-05T02:08:26.257Z,4.53
2023-02-05T02:10:56.904Z,4.93
2023-02-05T02:13:26.703Z,4.13
2023-02-05T02:15:54.019Z,4.40
2023-02-05T02:18:26.830Z,4.53
2023-02-05T02:21:19.287Z,3.70
2023-02-05T02:24:12.586Z,3.55
2023-02-05T02:27:11.857Z,3.50
2023-02-05T02:29:50.896Z,3.42
2023-02-05T02:32:30.030Z,4.72
2023-02-05T02:35:05.888Z,4.35
2023-02-05T02:37:56.576Z,4.20
2023-02-05T02:40:56.252Z,5.00
2023-02-05T02:43:30.779Z,5.80
2023-02-05T02:46:09.144Z,5.05
2023-02-05T02:48:39.720Z,5.22
2023-02-05T02:51:09.452Z,7.45
2023-02-05T02:53:42.885Z,6.32
2023-02-05T02:56:12.252Z,4.93
2023-02-05T02:58:45.519Z,4.72
2023-02-05T03:01:14.121Z,5.03
2023-02-05T03:03:46.254Z,5.10
2023-02-05T03:06:14.724Z,5.20
2023-02-05T03:08:54.680Z,6.22
2023-02-05T03:11:21.610Z,5.82
2023-02-05T03:13:48.658Z,5.40
2023-02-05T03:16:18.402Z,6.47
2023-02-05T03:18:46.148Z,5.93
2023-02-05T03:21:29.650Z,5.75
2023-02-05T03:23:57.091Z,7.28
2023-02-05T03:26:32.364Z,7.22
2023-02-05T03:29:03.155Z,6.18
2023-02-05T03:31:48.636Z,6.57
2023-02-05T03:34:51.925Z,7.97
2023-02-05T03:37:24.162Z,5.47
2023-02-05T03:39:58.561Z,7.43
2023-02-05T03:42:46.667Z,7.63
2023-02-05T03:45:22.028Z,6.60
2023-02-05T03:47:54.468Z,7.88
2023-02-05T03:50:31.767Z,7.30
2023-02-05T03:53:31.757Z,7.43
2023-02-05T03:56:28.311Z,7.22
2023-02-05T03:58:57.516Z,6.10
2023-02-05T04:01:25.422Z,6.90
2023-02-05T04:03:52.118Z,6.32
2023-02-05T04:06:19.225Z,7.50
2023-02-05T04:08:45.960Z,6.60
2023-02-05T04:11:13.327Z,6.72
2023-02-05T04:13:39.996Z,6.93
2023-02-05T04:16:06.652Z,6.10
2023-02-05T04:18:33.306Z,6.22
2023-02-05T04:21:00.586Z,6.60
2023-02-05T04:23:27.399Z,6.22
2023-02-05T04:25:55.238Z,7.05
2023-02-05T04:28:22.143Z,6.43
2023-02-05T04:30:48.872Z,7.55
2023-02-05T04:33:15.662Z,8.77
2023-02-05T04:35:42.511Z,13.68
2023-02-05T04:38:09.145Z,14.60
2023-02-05T04:40:35.831Z,9.80
2023-02-05T04:43:02.525Z,6.82
2023-02-05T04:45:31.233Z,7.30
2023-02-05T04:47:59.597Z,7.20
2023-02-05T04:50:27.554Z,6.07
2023-02-05T04:52:54.464Z,7.00
2023-02-05T04:55:21.529Z,6.28
2023-02-05T04:57:48.292Z,6.18
2023-02-05T05:00:15.266Z,6.47
2023-02-05T05:02:41.952Z,5.70
2023-02-05T05:05:08.957Z,6.47
2023-02-05T05:07:35.696Z,5.40
2023-02-05T05:10:02.345Z,6.35
2023-02-05T05:12:29.065Z,5.72
2023-02-05T05:14:56.079Z,6.43
2023-02-05T05:17:22.683Z,6.82
2023-02-05T05:19:49.299Z,7.88
2023-02-05T05:22:15.962Z,6.57
2023-02-05T05:24:42.659Z,5.90
2023-02-05T05:27:09.364Z,5.80
2023-02-05T05:29:36.593Z,5.95
2023-02-05T05:32:03.586Z,8.02
2023-02-05T05:34:30.283Z,7.30
2023-02-05T05:36:57.006Z,6.90
2023-02-05T05:39:42.438Z,8.02
2023-02-05T05:42:30.300Z,6.82
2023-02-05T05:44:57.016Z,6.75
2023-02-05T05:47:23.763Z,8.65
2023-02-05T05:49:50.522Z,8.68
2023-02-05T05:52:17.179Z,11.52
2023-02-05T05:54:43.871Z,11.85
2023-02-05T05:57:10.594Z,12.65
2023-02-05T05:59:37.323Z,13.93
2023-02-05T06:02:04.743Z,11.38
2023-02-05T06:04:31.642Z,12.43
2023-02-05T06:06:59.320Z,12.77
2023-02-05T06:09:25.990Z,12.45
2023-02-05T06:11:55.019Z,12.50
2023-02-05T06:14:21.701Z,10.02
2023-02-05T06:16:48.376Z,11.52
2023-02-05T06:19:15.094Z,11.73
2023-02-05T06:21:42.765Z,10.27
2023-02-05T06:24:09.423Z,11.40
2023-02-05T06:26:36.164Z,12.07
2023-02-05T06:29:05.583Z,10.02
2023-02-05T06:31:32.344Z,8.98
2023-02-05T06:34:01.262Z,10.30
2023-02-05T06:36:28.402Z,10.25
2023-02-05T06:38:55.081Z,11.68
2023-02-05T06:41:21.839Z,9.40
2023-02-05T06:43:48.531Z,10.68
2023-02-05T06:46:15.895Z,9.85
2023-02-05T06:48:42.704Z,9.45
2023-02-05T06:51:13.478Z,9.32
2023-02-05T06:53:40.296Z,9.75
2023-02-05T06:56:07.194Z,8.88
2023-02-05T06:58:33.956Z,8.20
2023-02-05T07:01:01.693Z,8.43
2023-02-05T07:03:28.496Z,9.25
2023-02-05T07:05:55.137Z,8.50
2023-02-05T07:08:21.787Z,7.97
2023-02-05T07:10:48.414Z,6.97
2023-02-05T07:13:15.134Z,8.43
2023-02-05T07:15:41.824Z,7.80
2023-02-05T07:18:08.471Z,7.38
2023-02-05T07:20:35.242Z,8.48
2023-02-05T07:23:05.567Z,9.02
2023-02-05T07:25:38.330Z,9.15
2023-02-05T07:28:06.457Z,8.80
2023-02-05T07:30:34.506Z,8.93
2023-02-05T07:33:03.501Z,9.18
2023-02-05T07:35:32.039Z,11.40
2023-02-05T07:37:59.299Z,10.18
2023-02-05T07:40:26.334Z,9.27
2023-02-05T07:42:52.962Z,12.20
2023-02-05T07:45:19.558Z,9.50
2023-02-05T07:47:46.928Z,9.43
2023-02-05T07:50:13.578Z,8.85
2023-02-05T07:52:40.179Z,10.40
2023-02-05T07:55:06.953Z,8.80
2023-02-05T07:57:33.613Z,8.85
2023-02-05T08:00:00.321Z,8.20
2023-02-05T08:02:27.068Z,6.93
2023-02-05T08:04:53.734Z,9.30
2023-02-05T08:07:20.408Z,6.80
2023-02-05T08:09:47.090Z,6.57
2023-02-05T08:12:13.820Z,7.10
2023-02-05T08:14:40.495Z,7.15
2023-02-05T08:17:07.219Z,6.90
2023-02-05T08:19:33.938Z,7.85
2023-02-05T08:22:00.606Z,6.68
2023-02-05T08:24:27.395Z,7.43
2023-02-05T08:26:54.046Z,7.97
2023-02-05T08:29:20.693Z,6.85
2023-02-05T08:31:47.441Z,6.93
2023-02-05T08:34:15.463Z,6.57
2023-02-05T08:36:42.117Z,7.00
2023-02-05T08:39:09.788Z,6.53
2023-02-05T08:41:37.554Z,6.60
2023-02-05T08:44:04.439Z,6.93
2023-02-05T08:46:40.353Z,6.63
2023-02-05T08:49:16.978Z,6.43
2023-02-05T08:51:43.850Z,7.20
2023-02-05T08:54:13.297Z,8.43
2023-02-05T08:56:40.935Z,6.38
2023-02-05T08:59:09.044Z,6.47
2023-02-05T09:01:37.497Z,7.65
2023-02-05T09:04:04.940Z,8.10
2023-02-05T09:06:31.693Z,7.53
2023-02-05T09:08:58.443Z,7.35
2023-02-05T09:11:30.506Z,8.25
2023-02-05T09:13:59.854Z,7.47
2023-02-05T09:16:27.224Z,7.85
2023-02-05T09:18:55.610Z,7.18
2023-02-05T09:21:22.534Z,7.43
2023-02-05T09:23:50.012Z,7.05
2023-02-05T09:26:16.931Z,6.88
2023-02-05T09:28:43.614Z,6.82
2023-02-05T09:31:17.768Z,7.60
2023-02-05T09:33:46.381Z,6.18
2023-02-05T09:36:19.193Z,7.07
2023-02-05T09:38:46.540Z,6.50
2023-02-05T09:41:13.303Z,6.40
2023-02-05T09:43:52.191Z,7.78
2023-02-05T09:46:36.113Z,6.63
2023-02-05T09:49:17.932Z,7.25
2023-02-05T09:51:48.204Z,8.30
2023-02-05T09:54:33.386Z,7.35
2023-02-05T09:57:05.967Z,7.95
2023-02-05T09:59:34.303Z,7.35
2023-02-05T10:02:17.748Z,7.43
2023-02-05T10:04:44.522Z,6.40
2023-02-05T10:07:24.675Z,6.35
2023-02-05T10:10:25.602Z,7.22
2023-02-05T10:13:04.268Z,6.90
2023-02-05T10:15:42.966Z,6.88
2023-02-05T10:18:40.320Z,6.70
2023-02-05T10:21:38.137Z,7.40
2023-02-05T10:24:16.630Z,5.40
2023-02-05T10:26:50.681Z,6.18
2023-02-05T10:29:43.514Z,6.32
2023-02-05T10:34:56.008Z,7.03
2023-02-05T10:37:39.623Z,6.93
2023-02-05T10:40:18.677Z,6.35
2023-02-05T10:42:51.254Z,6.30
2023-02-05T10:45:23.765Z,7.03
2023-02-05T10:48:19.516Z,6.88
2023-02-05T10:51:01.244Z,6.05
2023-02-05T10:53:30.059Z,5.03
2023-02-05T10:55:59.066Z,7.05
2023-02-05T10:58:37.170Z,11.07
2023-02-05T11:01:11.789Z,9.63
2023-02-05T11:03:40.009Z,8.95
2023-02-05T11:06:11.375Z,6.38
2023-02-05T11:08:44.009Z,4.75
2023-02-05T11:11:24.882Z,6.95
2023-02-05T11:14:06.332Z,5.97
2023-02-05T11:16:43.983Z,5.88
2023-02-05T11:19:24.171Z,6.85
2023-02-05T11:21:54.502Z,6.18
2023-02-05T11:24:33.225Z,5.07
2023-02-05T11:27:31.029Z,4.90
2023-02-05T11:30:17.849Z,4.30
2023-02-05T11:32:46.301Z,4.47
2023-02-05T11:35:20.771Z,5.50
2023-02-05T11:37:52.817Z,8.15
2023-02-05T11:40:21.555Z,6.75
2023-02-05T11:42:59.300Z,4.85
2023-02-05T11:45:29.413Z,3.28
2023-02-05T11:47:56.938Z,3.25
2023-02-05T11:50:26.498Z,3.72
2023-02-05T11:52:55.769Z,4.43
2023-02-05T11:55:36.152Z,5.55
2023-02-05T11:58:06.594Z,3.90
2023-02-05T12:00:34.512Z,4.43
2023-02-05T12:03:17.465Z,4.13
2023-02-05T12:06:06.112Z,3.63
2023-02-05T12:08:38.930Z,5.35
2023-02-05T12:11:14.388Z,3.22
2023-02-05T12:13:50.657Z,3.08
2023-02-05T12:16:42.789Z,3.55
2023-02-05T12:19:19.623Z,3.35
2023-02-05T12:22:03.936Z,2.42
2023-02-05T12:24:52.423Z,3.13
2023-02-05T12:27:48.975Z,3.45
2023-02-05T12:30:18.816Z,3.50
2023-02-05T12:33:29.634Z,4.78
2023-02-05T12:36:25.302Z,4.50
2023-02-05T12:39:08.123Z,3.10
2023-02-05T12:41:49.703Z,3.30
2023-02-05T12:44:34.974Z,3.20
2023-02-05T12:47:38.863Z,4.13
2023-02-05T12:50:32.170Z,3.13
2023-02-05T12:53:10.628Z,4.65
2023-02-05T12:55:59.809Z,4.13
2023-02-05T12:58:38.724Z,4.45
2023-02-05T13:01:14.993Z,5.57
2023-02-05T13:04:00.868Z,3.70
2023-02-05T13:06:35.846Z,3.20
2023-02-05T13:09:29.107Z,3.78
2023-02-05T13:12:07.352Z,3.72
2023-02-05T13:14:42.657Z,5.70
2023-02-05T13:17:22.587Z,4.18
2023-02-05T13:19:58.506Z,5.03
2023-02-05T13:22:57.867Z,6.45
2023-02-05T13:25:45.449Z,5.53
2023-02-05T13:28:41.743Z,4.18
2023-02-05T13:31:14.514Z,3.95
2023-02-05T13:33:42.490Z,4.40
2023-02-05T13:36:14.787Z,4.03
2023-02-05T13:41:48.369Z,5.03
2023-02-05T13:44:39.593Z,3.22
2023-02-05T13:47:27.420Z,3.65
2023-02-05T13:50:27.463Z,3.20
2023-02-05T13:52:54.046Z,2.20
2023-02-05T13:55:35.082Z,2.85
2023-02-05T13:58:13.761Z,3.28
2023-02-05T14:00:44.257Z,2.92
2023-02-05T14:03:26.638Z,2.92
2023-02-05T14:05:53.661Z,2.47
2023-02-05T14:08:27.817Z,4.18
2023-02-05T14:11:12.413Z,2.53
2023-02-05T14:13:39.292Z,3.45
2023-02-05T14:16:24.207Z,3.22
2023-02-05T14:18:59.978Z,2.58
2023-02-05T14:21:30.820Z,2.90
2023-02-05T14:24:03.555Z,2.47
2023-02-05T14:26:51.564Z,3.25
2023-02-05T14:29:42.542Z,3.20
2023-02-05T14:32:13.772Z,3.65
2023-02-05T14:34:40.306Z,3.78
2023-02-05T14:37:24.058Z,2.90
2023-02-05T14:39:51.943Z,3.55
2023-02-05T14:42:30.287Z,3.45
2023-02-05T14:45:00.324Z,4.78
2023-02-05T14:47:31.455Z,3.65
2023-02-05T14:50:10.203Z,3.28
2023-02-05T14:52:46.393Z,3.25
2023-02-05T14:55:12.976Z,3.28
2023-02-05T14:57:49.284Z,2.90
2023-02-05T15:00:28.048Z,2.97
2023-02-05T15:03:12.848Z,2.33
2023-02-05T15:05:48.780Z,3.60
2023-02-05T15:08:42.968Z,2.60
2023-02-05T15:11:47.077Z,3.53
2023-02-05T15:14:19.746Z,4.97
2023-02-05T15:17:06.975Z,3.00
2023-02-05T15:19:40.209Z,3.00
2023-02-05T15:22:19.700Z,2.80
2023-02-05T15:24:49.260Z,3.67
2023-02-05T15:27:24.583Z,2.58
2023-02-05T15:29:57.264Z,3.33
2023-02-05T15:32:36.228Z,3.67
2023-02-05T15:35:07.182Z,5.47
2023-02-05T15:37:41.989Z,3.17
2023-02-05T15:40:20.884Z,1.80
2023-02-05T15:42:53.082Z,2.22
2023-02-05T15:45:33.826Z,2.15
2023-02-05T15:48:11.159Z,2.65
2023-02-05T15:50:43.968Z,3.60
2023-02-05T15:53:35.651Z,3.10
2023-02-05T15:56:19.547Z,2.30
2023-02-05T15:58:51.361Z,2.20
2023-02-05T16:01:39.428Z,2.65
2023-02-05T16:04:30.603Z,2.78
2023-02-05T16:06:57.817Z,2.42
2023-02-05T16:09:26.587Z,3.22
2023-02-05T16:11:54.375Z,3.42
2023-02-05T16:14:26.167Z,2.22
2023-02-05T16:16:55.424Z,3.28
2023-02-05T16:19:26.401Z,7.07
2023-02-05T16:22:04.386Z,4.20
2023-02-05T16:24:36.394Z,3.08
2023-02-05T16:27:09.156Z,3.03
2023-02-05T16:29:48.038Z,3.20
2023-02-05T16:32:21.342Z,2.85
2023-02-05T16:34:48.459Z,3.78
2023-02-05T16:37:18.365Z,2.80
2023-02-05T16:39:54.179Z,3.97
2023-02-05T16:42:26.673Z,3.00
2023-02-05T16:45:05.517Z,2.95
2023-02-05T16:47:32.189Z,4.55
2023-02-05T16:49:58.855Z,6.43
2023-02-05T16:52:35.399Z,2.97
2023-02-05T16:55:24.770Z,3.45
2023-02-05T16:57:53.026Z,4.55
2023-02-05T17:00:27.834Z,3.50
2023-02-05T17:02:56.980Z,3.95
2023-02-05T17:05:31.842Z,2.72
2023-02-05T17:07:59.723Z,3.35
2023-02-05T17:10:28.302Z,5.20
2023-02-05T17:12:56.403Z,3.33
2023-02-05T17:15:23.428Z,3.17
2023-02-05T17:17:56.072Z,3.70
2023-02-05T17:20:28.389Z,4.82
2023-02-05T17:25:33.555Z,3.38
2023-02-05T17:28:02.645Z,3.20
2023-02-05T17:30:29.463Z,3.95
2023-02-05T17:33:00.154Z,3.95
2023-02-05T17:35:26.899Z,6.18
2023-02-05T17:37:53.951Z,4.10
2023-02-05T17:40:20.914Z,4.47
2023-02-05T17:42:48.197Z,5.05
2023-02-05T17:45:16.137Z,5.47
2023-02-05T17:47:43.045Z,6.25
2023-02-05T17:50:11.203Z,6.20
2023-02-05T17:52:40.710Z,4.85
2023-02-05T17:55:14.356Z,5.65
2023-02-05T17:57:43.072Z,6.88
2023-02-05T18:00:25.672Z,7.43
2023-02-05T18:02:56.052Z,5.53
2023-02-05T18:05:23.789Z,4.90
2023-02-05T18:07:54.707Z,4.60
2023-02-05T18:10:27.555Z,3.40
2023-02-05T18:12:55.792Z,4.15
2023-02-05T18:15:23.489Z,4.57
2023-02-05T18:17:50.334Z,3.85
2023-02-05T18:20:22.135Z,4.70
2023-02-05T18:22:49.731Z,4.78
2023-02-05T18:25:16.709Z,4.50
2023-02-05T18:27:43.460Z,4.70
2023-02-05T18:30:10.860Z,4.10
2023-02-05T18:32:37.502Z,4.68
2023-02-05T18:35:04.372Z,5.88
2023-02-05T18:37:31.200Z,5.53
2023-02-05T18:39:57.869Z,5.25
2023-02-05T18:42:24.602Z,5.55
2023-02-05T18:44:51.420Z,5.97
2023-02-05T18:47:18.216Z,4.70
2023-02-05T18:49:45.019Z,5.40
2023-02-05T18:52:13.934Z,4.82
2023-02-05T18:54:40.876Z,4.35
2023-02-05T18:57:07.568Z,4.53
2023-02-05T18:59:34.397Z,5.63
2023-02-05T19:02:01.142Z,4.03
2023-02-05T19:04:28.108Z,4.47
2023-02-05T19:06:54.935Z,4.10
2023-02-05T19:09:23.567Z,4.57
2023-02-05T19:11:51.143Z,4.10
2023-02-05T19:14:20.599Z,4.10
2023-02-05T19:16:49.042Z,4.50
2023-02-05T19:19:26.397Z,4.80
2023-02-05T19:21:54.799Z,4.85
2023-02-05T19:24:22.360Z,4.70
2023-02-05T19:26:50.886Z,4.65
2023-02-05T19:29:19.637Z,4.07
2023-02-05T19:31:47.208Z,4.40
2023-02-05T19:34:14.632Z,4.30
2023-02-05T19:36:42.068Z,3.47
2023-02-05T19:39:11.804Z,4.40
2023-02-05T19:41:38.631Z,4.45
2023-02-05T19:44:08.378Z,5.35
2023-02-05T19:46:39.771Z,4.30
2023-02-05T19:49:11.772Z,5.82
2023-02-05T19:51:38.716Z,4.53
2023-02-05T19:54:06.726Z,5.05
2023-02-05T19:56:35.699Z,11.18
2023-02-05T19:59:02.334Z,12.63
2023-02-05T20:01:31.250Z,12.38
2023-02-05T20:04:01.471Z,16.33
2023-02-05T20:06:29.946Z,14.98
2023-02-05T20:08:57.239Z,15.23
2023-02-05T20:11:23.993Z,16.10
2023-02-05T20:13:50.676Z,13.77
2023-02-05T20:16:20.037Z,16.33
2023-02-05T20:18:47.873Z,17.48
2023-02-05T20:21:18.610Z,14.50
2023-02-05T20:23:46.695Z,15.43
2023-02-05T20:26:14.584Z,14.40
2023-02-05T20:29:00.704Z,14.75
2023-02-05T20:31:35.364Z,15.70
2023-02-05T20:34:11.059Z,20.83
2023-02-05T20:36:38.114Z,24.55
2023-02-05T20:39:07.131Z,22.70
2023-02-05T20:41:34.372Z,19.48
2023-02-05T20:44:01.200Z,19.13
2023-02-05T20:46:27.979Z,21.05
2023-02-05T20:48:54.867Z,20.08
2023-02-05T20:51:23.072Z,20.13
2023-02-05T20:53:57.142Z,20.15
2023-02-05T20:56:24.997Z,19.60
2023-02-05T20:58:52.017Z,18.83
2023-02-05T21:01:21.846Z,21.63
2023-02-05T21:03:51.370Z,18.63
2023-02-05T21:06:20.197Z,18.08
2023-02-05T21:08:49.696Z,17.90
2023-02-05T21:11:18.199Z,18.58
2023-02-05T21:13:46.275Z,20.40
2023-02-05T21:16:14.257Z,17.65
2023-02-05T21:18:43.184Z,17.70
2023-02-05T21:21:12.278Z,18.15
2023-02-05T21:23:39.415Z,15.90
2023-02-05T21:26:07.561Z,16.95
2023-02-05T21:28:34.895Z,18.05
2023-02-05T21:31:07.407Z,17.27
2023-02-05T21:33:35.438Z,16.98
2023-02-05T21:36:07.608Z,17.90
2023-02-05T21:38:39.941Z,14.45
2023-02-05T21:41:12.403Z,16.38
2023-02-05T21:46:09.348Z,13.15
2023-02-05T21:48:36.427Z,12.05
2023-02-05T21:51:14.906Z,13.45
2023-02-05T21:53:42.017Z,17.00
2023-02-05T21:56:10.621Z,12.15
2023-02-05T21:58:38.798Z,12.90
2023-02-05T22:01:20.121Z,12.23
2023-02-05T22:03:58.643Z,12.52
2023-02-05T22:06:29.671Z,15.02
2023-02-05T22:08:57.854Z,17.58
2023-02-05T22:11:25.787Z,16.45
2023-02-05T22:13:53.826Z,14.68
2023-02-05T22:16:27.711Z,17.33
2023-02-05T22:18:55.532Z,16.15
2023-02-05T22:21:25.477Z,17.70
2023-02-05T22:23:53.576Z,18.10
2023-02-05T22:26:26.389Z,16.63
2023-02-05T22:28:53.689Z,18.45
2023-02-05T22:31:21.622Z,14.15
2023-02-05T22:33:50.513Z,14.88
2023-02-05T22:36:20.994Z,11.43
2023-02-05T22:38:49.664Z,12.20
2023-02-05T22:41:19.281Z,14.30
2023-02-05T22:43:46.042Z,12.68
2023-02-05T22:46:18.798Z,11.88
2023-02-05T22:48:47.453Z,13.38
2023-02-05T22:51:19.636Z,13.43
2023-02-05T22:53:46.404Z,13.18
2023-02-05T22:56:13.578Z,11.73
2023-02-05T22:58:43.482Z,11.35
2023-02-05T23:01:12.093Z,10.02
2023-02-05T23:03:39.378Z,10.05
2023-02-05T23:06:15.804Z,10.30
2023-02-05T23:08:43.307Z,8.68
2023-02-05T23:11:15.477Z,9.93
2023-02-05T23:13:42.194Z,9.45
2023-02-05T23:16:18.207Z,9.55
2023-02-05T23:18:45.625Z,8.32
2023-02-05T23:21:15.534Z,8.98
2023-02-05T23:23:43.005Z,8.68
2023-02-05T23:26:17.209Z,9.30
2023-02-05T23:28:44.434Z,10.32
2023-02-05T23:31:11.407Z,11.63
2023-02-05T23:33:38.518Z,12.82
2023-02-05T23:36:06.602Z,16.17
2023-02-05T23:38:33.644Z,13.80
2023-02-05T23:41:01.005Z,13.85
2023-02-05T23:43:27.959Z,13.35
2023-02-05T23:45:55.167Z,14.13
2023-02-05T23:48:22.064Z,14.68
2023-02-05T23:50:50.630Z,14.00
2023-02-05T23:53:17.990Z,15.25
2023-02-05T23:55:44.897Z,15.63
2023-02-05T23:58:11.807Z,15.85
